Lebanon Church, Virginia
Current Conditions -  °F | °C
As of 3:35 PM on Monday 22 Dec 2014 (Local Time) from KFRR Reporting Station
Overcast Overcast  
Wind Chill: 32°   Ceiling: 300
Heat Index: 32°   Visibility: 1.5mi
Dew Point: 32°   Wind: 0mph
Humidity: 100%   Direction: NA
Pressure: 30.14"   Gusts: NA
Location:  39.0088°N, 78.3644°W
Report Text: KFRR 222035Z AUTO 00000KT 1 1/2SM OVC003 00/00 A3014 RMK AO1 P0001
Loading
Personal Weather Stations






























Interactive Weather Map New forecast layout! Learn more

10-Day Weather Forecast

Advertisements
Track Severe Weather on mobile